Time;durP1;ratioP1;P1;durP2;ratioP2;P2;SDS_P1;SDS_P2;PMS_P1;PMS_P2;Temp;Humidity;BMP_temperature;BMP_pressure;BME280_temperature;BME280_humidity;BME280_pressure;Samples;Min_cycle;Max_cycle;Signal;HPM_P1;HPM_P2
2021/12/03 00:01:10;;;;;;;7.10;4.53;;;;;;;7.62;56.42;94370.00;5009689;28;20484;-78
2021/12/03 00:03:36;;;;;;;8.52;5.07;;;;;;;7.29;57.42;94365.84;5008624;28;20033;-80
2021/12/03 00:06:01;;;;;;;6.22;4.13;;;;;;;7.40;57.15;94366.38;5007741;28;20477;-79
2021/12/03 00:08:27;;;;;;;7.18;4.72;;;;;;;7.22;57.68;94364.09;5009686;28;20117;-78
2021/12/03 00:10:58;;;;;;;8.52;3.97;;;;;;;7.35;57.51;94374.13;5008321;28;20022;-79
2021/12/03 00:13:23;;;;;;;7.65;4.13;;;;;;;7.39;57.68;94370.91;5009417;28;20029;-79
2021/12/03 00:15:49;;;;;;;4.60;3.30;;;;;;;7.50;57.56;94398.97;4997698;28;20085;-80
2021/12/03 00:18:14;;;;;;;5.65;3.00;;;;;;;7.66;57.60;94370.44;5011709;28;20560;-79
2021/12/03 00:20:40;;;;;;;7.32;2.80;;;;;;;7.98;57.16;94386.25;5013000;28;20040;-78
2021/12/03 00:23:06;;;;;;;3.72;2.58;;;;;;;8.15;56.98;94386.84;5007786;28;20030;-79
2021/12/03 00:25:32;;;;;;;5.10;3.15;;;;;;;8.23;56.45;94389.41;5009687;28;20105;-78
2021/12/03 00:27:58;;;;;;;4.32;2.45;;;;;;;8.49;55.98;94398.75;5007582;28;20065;-77
2021/12/03 00:30:23;;;;;;;4.75;2.70;;;;;;;8.65;56.13;94378.16;5007812;28;20022;-79
2021/12/03 00:32:49;;;;;;;4.63;2.50;;;;;;;8.71;55.55;94388.09;5007781;28;20029;-78
2021/12/03 00:35:15;;;;;;;3.63;2.70;;;;;;;8.80;55.59;94374.59;5008700;28;20482;-78
2021/12/03 00:37:40;;;;;;;5.22;2.55;;;;;;;8.86;55.64;94373.81;4991689;28;20022;-78
2021/12/03 00:40:07;;;;;;;3.05;2.25;;;;;;;8.98;55.12;94363.44;5008502;28;20026;-79
2021/12/03 00:42:33;;;;;;;4.38;2.33;;;;;;;9.06;55.01;94373.16;4991637;28;20075;-78
2021/12/03 00:45:01;;;;;;;5.25;2.42;;;;;;;9.11;54.74;94373.38;4989897;28;20525;-78
2021/12/03 00:47:27;;;;;;;9.82;2.35;;;;;;;9.20;54.54;94380.28;5008508;28;20026;-79
2021/12/03 00:49:53;;;;;;;3.83;3.08;;;;;;;9.22;54.69;94374.72;5007478;28;20477;-78
2021/12/03 00:52:18;;;;;;;3.35;2.30;;;;;;;9.29;53.99;94370.22;5008312;28;20053;-79
2021/12/03 00:54:44;;;;;;;3.10;2.08;;;;;;;9.40;54.06;94380.41;4991204;28;20111;-79
2021/12/03 00:57:09;;;;;;;5.45;2.38;;;;;;;9.49;53.50;94389.13;5006838;28;20483;-78
2021/12/03 00:59:35;;;;;;;7.43;2.10;;;;;;;9.57;53.52;94366.72;4991062;28;20472;-78
2021/12/03 01:02:00;;;;;;;5.00;2.20;;;;;;;9.69;52.66;94372.31;5006968;28;20026;-78
2021/12/03 01:04:26;;;;;;;3.60;2.20;;;;;;;9.71;53.14;94364.94;4990724;28;20033;-79
2021/12/03 01:06:51;;;;;;;6.55;2.65;;;;;;;9.75;52.49;94379.56;4990479;28;20032;-78
2021/12/03 01:09:16;;;;;;;3.80;2.17;;;;;;;9.86;52.42;94355.94;5008652;28;20087;-77
2021/12/03 01:11:42;;;;;;;6.88;2.00;;;;;;;9.92;52.57;94365.84;5008369;28;20022;-80
2021/12/03 01:14:07;;;;;;;4.88;3.08;;;;;;;9.94;52.47;94365.66;5006612;28;20401;-78
2021/12/03 01:16:33;;;;;;;4.72;2.58;;;;;;;9.97;52.24;94362.56;5007064;28;20409;-78
2021/12/03 01:18:59;;;;;;;4.57;2.33;;;;;;;9.95;52.19;94373.50;4990141;28;20038;-78
2021/12/03 01:21:24;;;;;;;5.13;2.50;;;;;;;9.96;52.47;94366.28;4990525;28;20025;-78
2021/12/03 01:23:50;;;;;;;5.13;2.50;;;;;;;9.96;52.56;94345.66;5006285;28;20018;-78
2021/12/03 01:26:15;;;;;;;6.32;2.38;;;;;;;9.94;52.37;94358.47;4990528;28;20047;-78
2021/12/03 01:28:41;;;;;;;5.60;2.67;;;;;;;9.92;52.41;94349.78;5005941;28;20045;-78
2021/12/03 01:31:07;;;;;;;3.60;2.30;;;;;;;9.92;52.72;94355.16;4990453;28;20426;-78
2021/12/03 01:33:32;;;;;;;4.75;2.20;;;;;;;9.85;53.13;94355.09;5008337;28;20022;-78
2021/12/03 01:35:58;;;;;;;3.60;2.15;;;;;;;9.80;53.29;94360.22;5006083;28;20115;-78
2021/12/03 01:38:23;;;;;;;6.32;2.30;;;;;;;9.83;53.22;94353.66;4990725;28;20014;-78
2021/12/03 01:40:49;;;;;;;4.57;2.13;;;;;;;9.77;52.75;94345.41;5005606;28;20045;-77
2021/12/03 01:43:32;;;;;;;4.53;2.40;;;;;;;9.65;53.47;94360.38;5007835;28;20030;-78
2021/12/03 01:46:01;;;;;;;4.60;2.80;;;;;;;9.56;52.39;94350.84;5005874;28;20099;-77
2021/12/03 01:48:27;;;;;;;6.18;3.13;;;;;;;9.49;51.30;94348.97;5007679;28;20030;-78
2021/12/03 01:50:52;;;;;;;5.25;3.10;;;;;;;9.21;50.83;94378.41;4989884;28;20434;-78
2021/12/03 01:53:23;;;;;;;4.63;3.22;;;;;;;8.81;52.06;94355.69;4989417;28;20050;-78
2021/12/03 01:55:48;;;;;;;7.70;3.90;;;;;;;8.51;52.74;94359.28;5007703;28;20495;-78
2021/12/03 01:58:14;;;;;;;6.03;3.60;;;;;;;8.37;53.56;94365.50;5006957;28;20033;-78
2021/12/03 02:01:00;;;;;;;5.75;3.25;;;;;;;8.20;54.42;94344.38;5006078;28;20037;-78
2021/12/03 02:03:28;;;;;;;4.82;3.45;;;;;;;8.01;55.27;94345.81;5006956;28;20026;-78
2021/12/03 02:05:53;;;;;;;9.05;3.40;;;;;;;7.90;55.46;94337.28;5005642;28;20022;-78
2021/12/03 02:08:19;;;;;;;5.43;3.38;;;;;;;7.80;55.73;94342.09;4973841;28;20042;-77
2021/12/03 02:10:45;;;;;;;5.38;3.88;;;;;;;7.84;55.86;94345.19;4988850;28;20033;-78
2021/12/03 02:13:11;;;;;;;4.30;3.00;;;;;;;7.82;56.41;94333.91;4989934;28;20056;-77
2021/12/03 02:15:37;;;;;;;4.07;3.03;;;;;;;7.96;56.84;94343.72;5006103;28;20409;-78
2021/12/03 02:18:03;;;;;;;5.95;3.20;;;;;;;7.97;56.35;94321.34;4989615;28;20405;-78
2021/12/03 02:20:29;;;;;;;3.88;2.80;;;;;;;7.85;57.16;94336.19;5006358;28;20061;-78
2021/12/03 02:22:55;;;;;;;4.00;2.60;;;;;;;7.99;58.04;94337.16;5005649;28;20022;-78
2021/12/03 02:25:21;;;;;;;3.90;2.60;;;;;;;8.28;57.35;94340.78;5005586;28;20105;-78
2021/12/03 02:27:51;;;;;;;4.32;2.95;;;;;;;8.43;57.03;94338.03;5005074;28;20022;-78
2021/12/03 02:30:16;;;;;;;4.70;3.00;;;;;;;8.42;54.95;94341.72;5005793;28;20032;-77
2021/12/03 02:32:42;;;;;;;4.38;3.10;;;;;;;8.12;55.50;94347.16;5004909;28;20018;-78
2021/12/03 02:35:08;;;;;;;4.05;3.03;;;;;;;8.14;55.20;94345.16;5005647;28;20022;-78
2021/12/03 02:37:33;;;;;;;7.18;3.10;;;;;;;7.98;55.48;94314.16;4988700;28;20053;-78
2021/12/03 02:39:59;;;;;;;3.85;2.72;;;;;;;7.98;55.52;94336.31;5005425;28;20346;-78
2021/12/03 02:42:24;;;;;;;6.40;3.30;;;;;;;7.93;55.62;94332.59;4988669;28;20445;-78
2021/12/03 02:44:49;;;;;;;4.38;3.60;;;;;;;7.86;55.68;94327.16;5006402;28;20080;-79
2021/12/03 02:47:15;;;;;;;5.60;2.90;;;;;;;7.76;55.94;94346.97;4989037;28;20026;-78
2021/12/03 02:49:41;;;;;;;6.20;3.60;;;;;;;7.60;56.45;94337.31;5006350;28;20092;-78
2021/12/03 02:52:07;;;;;;;6.88;3.92;;;;;;;7.63;56.67;94341.44;5005394;28;20082;-76
2021/12/03 02:54:32;;;;;;;4.70;3.28;;;;;;;7.55;56.99;94334.38;4988549;28;20112;-78
2021/12/03 02:56:57;;;;;;;7.43;3.63;;;;;;;7.47;57.47;94331.81;4988644;28;20026;-77
2021/12/03 02:59:23;;;;;;;10.30;3.53;;;;;;;7.52;58.86;94337.41;5004681;28;20480;-78
2021/12/03 03:01:48;;;;;;;4.10;2.92;;;;;;;7.67;58.61;94342.75;5006391;28;20037;-78
2021/12/03 03:04:14;;;;;;;4.18;3.47;;;;;;;7.76;58.58;94333.63;5004772;28;20029;-78
2021/12/03 03:06:41;;;;;;;4.00;3.20;;;;;;;7.92;59.03;94329.06;5004993;28;20032;-78
2021/12/03 03:09:10;;;;;;;7.38;2.80;;;;;;;8.10;59.18;94341.19;4992041;28;20236;-78
2021/12/03 03:11:36;;;;;;;3.63;2.92;;;;;;;8.36;59.03;94337.13;4993199;28;20029;-78
2021/12/03 03:14:02;;;;;;;3.45;2.55;;;;;;;8.46;58.56;94328.81;5009162;28;20033;-78
2021/12/03 03:16:27;;;;;;;3.85;2.50;;;;;;;8.62;58.64;94331.25;5008607;28;20493;-79
2021/12/03 03:18:52;;;;;;;3.60;2.53;;;;;;;8.74;58.36;94334.22;4992752;28;20577;-77
2021/12/03 03:21:18;;;;;;;4.63;2.50;;;;;;;8.86;58.11;94328.38;5010105;28;20049;-77
2021/12/03 03:23:43;;;;;;;6.15;2.90;;;;;;;8.94;58.13;94332.75;4992893;28;20059;-79
2021/12/03 03:26:09;;;;;;;4.03;2.83;;;;;;;8.95;57.61;94326.34;4992662;28;20113;-78
2021/12/03 03:28:35;;;;;;;10.20;2.70;;;;;;;9.01;57.95;94339.78;4992306;28;20030;-78
2021/12/03 03:31:01;;;;;;;4.65;2.47;;;;;;;9.12;57.06;94326.91;5009641;28;20026;-78
2021/12/03 03:33:27;;;;;;;5.75;2.60;;;;;;;9.13;57.22;94326.72;4992288;28;20057;-79
2021/12/03 03:35:52;;;;;;;4.85;2.65;;;;;;;9.23;57.28;94325.53;5010519;28;20060;-79
2021/12/03 03:38:18;;;;;;;2.88;2.47;;;;;;;9.20;56.73;94318.75;5009232;28;20022;-78
2021/12/03 03:40:44;;;;;;;3.92;2.88;;;;;;;9.26;56.94;94325.13;5008524;28;20069;-79
2021/12/03 03:43:09;;;;;;;4.30;2.70;;;;;;;9.30;57.20;94320.22;5007952;28;20535;-77
2021/12/03 03:45:36;;;;;;;5.00;2.58;;;;;;;9.28;56.86;94315.88;5008661;28;20026;-78
2021/12/03 03:48:01;;;;;;;7.60;2.83;;;;;;;9.32;56.83;94323.56;5008567;28;20045;-78
2021/12/03 03:50:27;;;;;;;8.63;4.28;;;;;;;9.10;57.54;94321.75;4975639;28;20084;-78
2021/12/03 03:52:53;;;;;;;6.13;3.55;;;;;;;9.06;57.25;94331.19;4992358;28;20104;-78
2021/12/03 03:55:19;;;;;;;9.02;4.25;;;;;;;9.04;57.07;94343.94;5007579;28;20095;-78
2021/12/03 03:57:45;;;;;;;7.55;3.88;;;;;;;8.83;56.48;94342.97;5008298;28;20432;-77
2021/12/03 04:00:13;;;;;;;7.53;3.67;;;;;;;8.85;54.82;94353.47;5007340;28;20045;-78
2021/12/03 04:02:39;;;;;;;5.15;3.42;;;;;;;8.69;54.80;94347.34;4991925;28;20026;-77
2021/12/03 04:05:05;;;;;;;5.07;3.60;;;;;;;8.55;54.66;94356.25;5007717;28;20026;-79
2021/12/03 04:07:30;;;;;;;8.98;3.97;;;;;;;8.39;54.94;94356.31;5009044;28;20141;-78
2021/12/03 04:09:59;;;;;;;8.77;3.50;;;;;;;8.29;54.86;94355.78;5009661;28;20026;-78
2021/12/03 04:12:24;;;;;;;6.07;3.17;;;;;;;8.11;55.30;94349.00;4990717;28;20022;-79
2021/12/03 04:14:49;;;;;;;8.35;3.70;;;;;;;7.90;56.22;94355.13;5008125;28;20030;-78
2021/12/03 04:17:15;;;;;;;5.10;3.25;;;;;;;7.82;56.23;94368.59;5007228;28;20026;-77
2021/12/03 04:19:43;;;;;;;6.25;3.88;;;;;;;7.69;56.26;94362.06;5006494;28;20022;-78
2021/12/03 04:22:08;;;;;;;8.07;3.78;;;;;;;7.59;56.60;94369.53;5008394;28;20101;-78
2021/12/03 04:24:34;;;;;;;5.00;3.88;;;;;;;7.53;56.46;94374.59;5007769;28;20038;-77
2021/12/03 04:26:59;;;;;;;7.47;4.30;;;;;;;7.28;57.45;94350.88;4991651;28;20033;-78
2021/12/03 04:29:25;;;;;;;6.10;4.28;;;;;;;7.27;57.19;94362.53;5007086;28;20038;-78
2021/12/03 04:31:50;;;;;;;7.00;4.32;;;;;;;7.21;57.76;94362.41;5007830;28;20158;-78
2021/12/03 04:34:15;;;;;;;5.43;3.90;;;;;;;7.03;58.19;94361.75;5008540;28;20563;-79
2021/12/03 04:36:41;;;;;;;5.80;3.90;;;;;;;7.07;58.30;94383.56;5010228;28;20517;-78
2021/12/03 04:39:06;;;;;;;6.50;4.20;;;;;;;7.06;58.68;94371.25;5008285;28;20543;-79
2021/12/03 04:41:32;;;;;;;7.05;4.50;;;;;;;7.00;59.12;94378.13;5007225;28;20582;-78
2021/12/03 04:43:57;;;;;;;5.93;3.92;;;;;;;7.02;58.92;94380.59;5007133;28;20041;-79
2021/12/03 04:46:22;;;;;;;7.20;4.13;;;;;;;6.89;59.09;94375.88;5006983;28;20029;-79
2021/12/03 04:48:49;;;;;;;7.18;4.03;;;;;;;6.86;59.52;94373.59;5007638;28;20026;-78
2021/12/03 04:51:14;;;;;;;5.80;4.07;;;;;;;6.86;59.73;94371.75;4990343;28;20488;-78
2021/12/03 04:53:40;;;;;;;7.00;4.50;;;;;;;6.90;59.85;94386.38;5008589;28;20433;-78
2021/12/03 04:56:05;;;;;;;5.93;4.13;;;;;;;6.93;60.76;94393.19;5007706;28;20029;-78
2021/12/03 04:58:31;;;;;;;5.53;4.20;;;;;;;6.99;60.99;94379.16;4990786;28;20120;-78
2021/12/03 05:00:56;;;;;;;8.60;3.75;;;;;;;7.09;61.90;94376.22;4990570;28;20056;-78
2021/12/03 05:03:24;;;;;;;7.28;3.92;;;;;;;7.32;62.10;94366.50;4990407;28;20053;-79
2021/12/03 05:05:54;;;;;;;11.93;4.22;;;;;;;7.47;61.44;94372.66;4990864;28;20121;-77
2021/12/03 05:08:21;;;;;;;13.00;4.43;;;;;;;7.72;61.59;94374.22;5007655;28;20030;-78
2021/12/03 05:10:47;;;;;;;11.07;4.40;;;;;;;7.90;61.55;94355.13;5007251;28;20034;-78
2021/12/03 05:13:15;;;;;;;7.80;3.40;;;;;;;8.10;60.81;94375.91;5011145;28;20448;-78
2021/12/03 05:15:41;;;;;;;9.35;4.40;;;;;;;8.21;60.62;94380.75;4990547;28;20025;-77
2021/12/03 05:18:08;;;;;;;16.73;5.20;;;;;;;8.32;60.36;94386.63;5006409;28;20399;-78
2021/12/03 05:20:33;;;;;;;9.80;5.20;;;;;;;8.24;57.54;94396.41;5006677;28;20405;-78
2021/12/03 05:22:59;;;;;;;9.73;5.40;;;;;;;7.87;58.06;94385.69;5006605;28;20527;-79
2021/12/03 05:25:24;;;;;;;8.23;5.18;;;;;;;7.75;58.29;94385.38;4990283;28;20029;-80
2021/12/03 05:27:50;;;;;;;11.38;6.10;;;;;;;7.36;58.55;94379.28;5007094;28;20037;-81
2021/12/03 05:30:15;;;;;;;9.13;5.45;;;;;;;6.96;59.79;94397.34;4989656;28;20017;-78
2021/12/03 05:32:41;;;;;;;10.50;5.70;;;;;;;6.94;59.69;94408.16;5006699;28;20449;-77
2021/12/03 05:35:07;;;;;;;8.35;5.70;;;;;;;6.94;59.54;94405.50;5006091;28;20460;-78
2021/12/03 05:37:32;;;;;;;9.25;5.32;;;;;;;6.89;59.84;94405.22;4990247;28;20398;-79
2021/12/03 05:39:58;;;;;;;7.63;5.22;;;;;;;6.88;59.44;94404.38;5007689;28;20030;-79
2021/12/03 05:42:23;;;;;;;9.55;6.35;;;;;;;6.83;60.10;94422.75;5006816;28;20029;-80
2021/12/03 05:44:48;;;;;;;10.90;5.78;;;;;;;6.51;61.36;94424.66;5006487;28;20069;-78
2021/12/03 05:47:14;;;;;;;10.20;4.80;;;;;;;6.73;62.88;94425.66;5005925;28;20424;-77
2021/12/03 05:49:39;;;;;;;8.63;4.65;;;;;;;6.85;63.14;94436.72;5007645;28;20473;-77
2021/12/03 05:52:05;;;;;;;9.40;5.65;;;;;;;6.70;62.31;94438.50;5005567;28;20050;-78
2021/12/03 05:54:30;;;;;;;8.77;4.88;;;;;;;6.86;63.79;94430.41;5007671;28;20056;-78
2021/12/03 05:56:56;;;;;;;7.68;4.07;;;;;;;7.14;63.76;94426.34;5005693;28;20496;-79
2021/12/03 05:59:21;;;;;;;14.38;4.53;;;;;;;7.32;63.97;94417.19;5006259;28;20057;-79
2021/12/03 06:01:47;;;;;;;11.10;4.57;;;;;;;7.59;63.38;94405.06;4989397;28;20286;-81
2021/12/03 06:04:12;;;;;;;7.60;2.90;;;;;;;7.89;63.61;94406.88;4989944;28;20037;-78
2021/12/03 06:06:38;;;;;;;7.20;3.10;;;;;;;8.20;62.31;94402.31;5006269;28;20025;-79
2021/12/03 06:09:04;;;;;;;11.70;5.00;;;;;;;8.42;61.50;94403.19;5007164;28;20021;-78
2021/12/03 06:11:29;;;;;;;15.40;5.75;;;;;;;8.62;61.38;94397.25;5006683;28;20022;-78
2021/12/03 06:13:54;;;;;;;20.98;7.68;;;;;;;8.88;60.40;94422.59;5007089;28;20100;-79
2021/12/03 06:16:20;;;;;;;10.90;4.80;;;;;;;9.09;59.78;94410.22;5006051;28;20025;-79
2021/12/03 06:18:45;;;;;;;11.18;3.90;;;;;;;9.24;59.07;94405.59;5006733;28;20026;-80
2021/12/03 06:21:12;;;;;;;7.70;3.47;;;;;;;9.44;58.48;94409.44;5005919;28;20045;-79
2021/12/03 06:23:38;;;;;;;5.45;2.63;;;;;;;9.52;58.11;94403.94;4989548;28;20052;-78
2021/12/03 06:26:04;;;;;;;7.30;2.50;;;;;;;9.62;57.89;94419.66;5005366;28;20465;-78
2021/12/03 06:28:30;;;;;;;4.55;2.63;;;;;;;9.74;57.21;94425.28;5006049;28;20072;-79
2021/12/03 06:30:55;;;;;;;6.45;3.00;;;;;;;9.76;57.33;94421.41;5004993;28;20026;-78
2021/12/03 06:33:21;;;;;;;8.70;3.13;;;;;;;9.91;56.23;94428.50;4989734;28;20092;-79
2021/12/03 06:35:47;;;;;;;4.78;2.38;;;;;;;9.98;55.97;94426.66;5005079;28;20507;-78
2021/12/03 06:38:13;;;;;;;6.75;1.98;;;;;;;10.09;55.91;94432.50;5005676;28;20088;-78
2021/12/03 06:40:38;;;;;;;6.32;2.85;;;;;;;10.15;55.54;94442.41;4988795;28;20113;-77
2021/12/03 06:43:03;;;;;;;7.95;2.65;;;;;;;10.20;55.62;94448.00;4988628;28;20444;-82
2021/12/03 06:45:29;;;;;;;4.78;2.30;;;;;;;10.30;55.66;94446.81;5006534;28;20109;-79
2021/12/03 06:47:54;;;;;;;8.82;2.67;;;;;;;10.34;55.52;94456.09;4989974;28;20504;-78
2021/12/03 06:50:20;;;;;;;8.02;3.17;;;;;;;10.36;55.81;94444.16;4990281;28;20412;-79
2021/12/03 06:52:49;;;;;;;8.18;3.65;;;;;;;10.42;55.54;94450.56;4989163;28;20056;-78
2021/12/03 06:55:15;;;;;;;6.25;3.20;;;;;;;10.50;54.93;94442.38;4990225;28;20934;-80
2021/12/03 06:57:44;;;;;;;5.43;2.40;;;;;;;10.51;54.95;94449.38;4989128;28;20030;-78
2021/12/03 07:00:10;;;;;;;4.00;2.40;;;;;;;10.57;54.81;94466.53;5005300;28;20029;-80
2021/12/03 07:02:35;;;;;;;7.90;2.97;;;;;;;10.64;54.57;94474.59;4989277;28;20026;-80
2021/12/03 07:05:04;;;;;;;7.20;2.83;;;;;;;10.59;54.38;94456.41;5006442;28;20401;-77
2021/12/03 07:07:29;;;;;;;7.22;2.95;;;;;;;10.65;54.14;94457.50;4990209;28;20025;-77
2021/12/03 07:09:56;;;;;;;6.45;2.80;;;;;;;10.66;54.51;94461.81;4988026;28;20029;-80
2021/12/03 07:12:21;;;;;;;7.50;2.72;;;;;;;10.70;54.54;94470.28;5007066;28;20470;-81
2021/12/03 07:14:46;;;;;;;8.85;2.67;;;;;;;10.70;55.00;94460.41;5006007;28;20511;-81
2021/12/03 07:17:12;;;;;;;9.30;3.08;;;;;;;10.77;54.35;94470.31;4988893;28;20029;-79
2021/12/03 07:19:37;;;;;;;8.10;3.78;;;;;;;10.81;54.49;94464.34;4991480;28;20026;-78
2021/12/03 07:22:03;;;;;;;4.82;2.58;;;;;;;10.86;54.25;94461.06;4975390;28;20030;-79
2021/12/03 07:24:28;;;;;;;11.82;3.97;;;;;;;10.88;54.75;94464.38;5005591;28;20030;-81
2021/12/03 07:26:54;;;;;;;9.35;3.03;;;;;;;10.91;54.39;94455.91;5006498;28;20084;-80
2021/12/03 07:29:19;;;;;;;5.38;2.17;;;;;;;10.95;54.29;94453.63;5006055;28;20080;-82
2021/12/03 07:31:45;;;;;;;11.10;2.83;;;;;;;10.80;54.58;94469.91;5005029;28;20022;-79
2021/12/03 07:34:11;;;;;;;7.72;2.85;;;;;;;10.97;54.47;94465.81;5006315;28;20037;-79
2021/12/03 07:36:37;;;;;;;6.47;2.35;;;;;;;11.03;53.81;94461.50;4988620;28;20026;-81
2021/12/03 07:39:03;;;;;;;7.90;3.00;;;;;;;11.04;53.38;94470.38;5005280;28;20014;-80
2021/12/03 07:41:28;;;;;;;7.05;3.35;;;;;;;11.05;53.58;94472.00;4988909;28;20156;-80
2021/12/03 07:43:54;;;;;;;7.05;2.42;;;;;;;11.09;53.23;94465.22;4988610;28;20081;-79
2021/12/03 07:46:19;;;;;;;7.95;3.33;;;;;;;11.15;53.24;94464.41;5006713;28;20030;-78
2021/12/03 07:48:48;;;;;;;10.20;4.10;;;;;;;11.28;52.65;94462.75;5004667;28;20030;-78
2021/12/03 07:51:17;;;;;;;7.03;4.55;;;;;;;11.23;52.68;94476.81;5006025;28;20026;-78
2021/12/03 07:53:43;;;;;;;10.35;3.45;;;;;;;11.23;52.67;94466.91;4988530;28;20026;-80
2021/12/03 07:56:09;;;;;;;7.38;2.78;;;;;;;11.28;53.16;94468.97;5008668;28;20030;-78
2021/12/03 07:58:34;;;;;;;6.95;2.53;;;;;;;11.38;53.32;94465.88;5008446;28;20479;-81
2021/12/03 08:01:00;;;;;;;5.65;2.40;;;;;;;11.44;52.07;94470.41;5008523;28;20052;-80
2021/12/03 08:03:25;;;;;;;4.72;2.00;;;;;;;11.52;51.93;94463.19;4992276;28;20057;-79
2021/12/03 08:05:51;;;;;;;5.22;2.10;;;;;;;11.62;51.64;94475.16;4991904;28;20088;-81
2021/12/03 08:08:21;;;;;;;7.07;2.65;;;;;;;11.64;51.68;94477.63;5008459;28;20034;-78
2021/12/03 08:10:47;;;;;;;6.82;2.90;;;;;;;11.69;51.67;94482.38;5007867;28;20398;-76
2021/12/03 08:13:13;;;;;;;11.57;3.70;;;;;;;11.65;51.72;94479.31;5008246;28;20044;-79
2021/12/03 08:15:38;;;;;;;9.20;3.85;;;;;;;11.69;51.12;94501.19;4991522;28;20088;-80
2021/12/03 08:18:05;;;;;;;8.40;3.78;;;;;;;11.63;51.23;94505.53;5009411;28;20026;-81
2021/12/03 08:20:31;;;;;;;9.00;4.10;;;;;;;11.66;51.39;94502.44;5008135;28;20044;-79
2021/12/03 08:22:56;;;;;;;8.90;3.75;;;;;;;11.66;51.21;94507.81;4991681;28;20026;-80
2021/12/03 08:25:21;;;;;;;8.40;3.95;;;;;;;11.64;51.46;94509.06;5008136;28;20046;-81
2021/12/03 08:27:47;;;;;;;5.35;3.15;;;;;;;11.69;51.04;94512.75;4975167;28;20080;-84
2021/12/03 08:30:13;;;;;;;7.03;2.42;;;;;;;11.72;52.00;94511.53;4975651;28;20026;-79
2021/12/03 08:32:39;;;;;;;3.97;2.08;;;;;;;11.78;52.32;94510.69;5007395;28;20381;-80
2021/12/03 08:35:05;;;;;;;7.65;2.60;;;;;;;11.80;52.24;94505.13;5007882;28;20109;-79
2021/12/03 08:37:30;;;;;;;6.93;2.50;;;;;;;11.78;52.86;94499.13;4990770;28;20929;-80
2021/12/03 08:39:56;;;;;;;5.40;2.30;;;;;;;11.83;52.78;94492.06;5011007;28;20037;-79
2021/12/03 08:42:21;;;;;;;7.82;2.45;;;;;;;11.85;52.93;94499.94;4991558;28;20100;-77
2021/12/03 08:44:47;;;;;;;5.38;2.70;;;;;;;11.83;52.93;94499.34;5007327;28;20038;-78
2021/12/03 08:47:12;;;;;;;9.80;2.30;;;;;;;11.90;52.38;94499.34;5008013;28;20029;-82
2021/12/03 08:50:00;;;;;;;5.07;2.25;;;;;;;11.88;52.70;94496.84;5006738;28;20022;-78
2021/12/03 08:54:58;;;;;;;5.38;2.42;;;;;;;11.95;52.57;94500.34;4992439;28;20041;-79
2021/12/03 08:57:32;;;;;;;8.32;2.42;;;;;;;12.02;52.56;94500.34;4974581;28;20034;-80
2021/12/03 09:00:00;;;;;;;6.13;2.50;;;;;;;11.96;52.83;94507.34;5007669;28;20033;-79
2021/12/03 09:02:26;;;;;;;8.55;2.58;;;;;;;11.97;52.93;94495.59;5008121;28;20033;-80
2021/12/03 09:04:51;;;;;;;5.10;2.45;;;;;;;11.99;52.84;94508.81;5007604;28;20053;-78
2021/12/03 09:07:17;;;;;;;3.30;1.90;;;;;;;12.04;52.72;94513.56;5006103;28;20107;-79
2021/12/03 09:09:42;;;;;;;4.68;2.13;;;;;;;12.07;52.77;94526.59;4990771;28;20026;-78
2021/12/03 09:12:08;;;;;;;7.18;2.58;;;;;;;12.10;52.57;94518.13;5006839;28;20022;-79
2021/12/03 09:23:05;;;;;;;7.00;2.60;;;;;;;12.02;52.97;94508.41;4992939;28;20573;-80
2021/12/03 09:25:11;;;;;;;7.03;2.20;;;;;;;12.03;52.27;94518.09;5007153;28;20049;-77
2021/12/03 09:27:37;;;;;;;8.85;3.17;;;;;;;12.04;52.29;94518.94;5006506;28;20022;-79
2021/12/03 09:30:07;;;;;;;5.43;2.28;;;;;;;12.11;52.60;94515.25;5007142;28;20022;-79
2021/12/03 09:32:33;;;;;;;12.40;2.33;;;;;;;12.07;52.47;94513.97;5006182;28;20037;-80
2021/12/03 09:34:59;;;;;;;8.85;2.10;;;;;;;12.08;52.16;94517.50;5008385;28;20076;-81
2021/12/03 09:37:25;;;;;;;6.57;2.40;;;;;;;12.13;52.66;94515.03;4990008;28;20061;-78
2021/12/03 09:39:51;;;;;;;7.25;2.20;;;;;;;12.16;52.53;94525.34;4990346;28;20026;-80
2021/12/03 09:42:20;;;;;;;8.95;1.83;;;;;;;12.20;51.54;94521.22;5006516;28;20025;-84
2021/12/03 09:44:46;;;;;;;7.93;2.25;;;;;;;12.20;52.11;94505.06;5007679;28;20022;-81
2021/12/03 09:47:15;;;;;;;8.10;2.28;;;;;;;12.21;51.85;94503.22;5006779;28;20030;-79
2021/12/03 09:49:42;;;;;;;6.75;2.55;;;;;;;12.28;51.64;94497.84;5005917;28;20450;-82
2021/12/03 09:54:40;;;;;;;9.63;2.33;;;;;;;12.28;51.64;94505.91;4989824;28;20475;-81
2021/12/03 09:57:10;;;;;;;4.65;1.80;;;;;;;12.23;51.73;94519.97;4990580;28;20030;-83
2021/12/03 10:02:42;;;;;;;7.38;2.72;;;;;;;12.20;52.09;94505.06;4992629;28;20135;-79
2021/12/03 10:15:50;;;;;;;4.60;2.03;;;;;;;12.23;51.62;94483.19;5007026;28;20034;-78
2021/12/03 10:18:31;;;;;;;6.70;2.28;;;;;;;12.17;51.72;94497.44;4974450;28;20030;-78
2021/12/03 10:37:26;;;;;;;10.05;1.90;;;;;;;12.49;50.07;94481.41;4991704;28;20516;-83
2021/12/03 10:40:07;;;;;;;7.97;2.60;;;;;;;12.54;50.57;94479.97;4991989;28;20511;-82
2021/12/03 10:47:49;;;;;;;5.90;1.70;;;;;;;12.67;48.83;94458.38;5006735;28;20018;-79
2021/12/03 11:16:30;;;;;;;8.88;2.20;;;;;;;12.97;48.43;94482.06;4994187;28;20131;-80
2021/12/03 11:33:37;;;;;;;6.60;2.15;;;;;;;12.98;48.19;94464.84;5009459;28;20041;-80
2021/12/03 11:48:16;;;;;;;4.63;1.95;;;;;;;13.05;47.69;94453.22;5011837;28;20045;-77
2021/12/03 12:47:49;;;;;;;5.90;1.90;;;;;;;13.12;46.11;94432.47;5009172;28;20026;-79
2021/12/03 13:13:56;;;;;;;9.68;3.13;;;;;;;13.12;46.91;94463.94;5008120;28;20504;-79
2021/12/03 14:43:22;;;;;;;9.25;3.15;;;;;;;12.90;45.91;94488.47;5011111;28;20034;-81
2021/12/03 14:48:37;;;;;;;9.32;2.88;;;;;;;12.92;46.15;94507.94;4993702;28;20037;-80
2021/12/03 14:56:47;;;;;;;8.27;3.97;;;;;;;12.87;47.05;94522.03;5008027;28;20069;-80
2021/12/03 14:59:28;;;;;;;10.48;4.15;;;;;;;12.82;46.78;94521.84;5009010;28;20477;-79
2021/12/03 15:02:06;;;;;;;6.43;2.72;;;;;;;12.83;46.75;94528.91;5005946;28;20408;-79
2021/12/03 15:04:51;;;;;;;6.60;3.13;;;;;;;12.65;51.22;94534.97;5008655;28;20022;-78
2021/12/03 15:07:23;;;;;;;9.50;4.13;;;;;;;12.20;53.08;94531.97;5009358;28;20030;-79
2021/12/03 15:09:51;;;;;;;10.40;4.20;;;;;;;11.69;54.73;94528.88;5010390;28;20056;-79
2021/12/03 15:25:35;;;;;;;5.22;3.67;;;;;;;9.94;59.64;94556.66;5010035;28;20036;-79
2021/12/03 15:28:32;;;;;;;5.85;3.60;;;;;;;9.79;60.14;94570.13;5012852;28;20095;-78
2021/12/03 15:33:37;;;;;;;4.90;3.08;;;;;;;9.43;60.60;94574.53;5009105;28;20026;-79
2021/12/03 15:36:06;;;;;;;7.93;2.70;;;;;;;9.23;61.04;94575.19;5009915;28;20042;-82
2021/12/03 16:05:19;;;;;;;3.33;1.80;;;;;;;7.63;64.85;94627.00;5008818;28;20197;-78
2021/12/03 16:08:02;;;;;;;4.00;1.95;;;;;;;7.44;65.69;94621.16;5008095;28;20034;-78
2021/12/03 16:11:14;;;;;;;3.70;2.30;;;;;;;7.32;65.68;94625.25;4994017;28;20021;-80
2021/12/03 16:19:17;;;;;;;3.72;2.22;;;;;;;7.06;66.18;94632.56;5008094;28;20052;-79
2021/12/03 16:53:49;;;;;;;3.55;2.83;;;;;;;6.12;69.14;94673.97;4992470;28;20461;-79
2021/12/03 16:56:20;;;;;;;5.82;2.67;;;;;;;6.10;68.40;94666.16;5006637;28;20485;-78
2021/12/03 16:58:46;;;;;;;5.38;3.00;;;;;;;6.00;69.09;94676.94;5005796;28;20083;-79
2021/12/03 17:01:24;;;;;;;4.85;2.97;;;;;;;5.98;68.87;94676.25;5006450;28;20030;-79
2021/12/03 17:49:17;;;;;;;5.70;3.47;;;;;;;4.77;73.12;94769.53;5005226;28;20113;-79
2021/12/03 17:51:52;;;;;;;7.07;4.25;;;;;;;4.65;73.50;94753.03;4988356;28;20062;-81
2021/12/03 17:56:53;;;;;;;5.93;4.25;;;;;;;4.52;73.96;94767.56;5005659;28;20053;-79
2021/12/03 17:59:22;;;;;;;5.85;3.75;;;;;;;4.52;74.31;94770.22;4968600;28;20090;-79
2021/12/03 18:01:59;;;;;;;6.10;3.20;;;;;;;4.45;73.24;94779.78;5000399;28;20417;-82
2021/12/03 18:07:05;;;;;;;4.43;3.30;;;;;;;4.28;73.72;94769.06;4989279;28;20025;-82
2021/12/03 18:52:31;;;;;;;3.28;2.42;;;;;;;4.32;73.07;94830.66;5003626;28;20038;-82
2021/12/03 18:55:04;;;;;;;;;;;;;;;4.24;72.97;94812.81;5006708;28;20074;-81
2021/12/03 18:57:33;;;;;;;3.95;2.03;;;;;;;4.33;72.66;94822.53;5006193;28;19997;-83
2021/12/03 19:00:03;;;;;;;3.45;1.98;;;;;;;4.27;71.85;94815.16;5004358;28;20034;-82
2021/12/03 19:02:29;;;;;;;4.22;2.17;;;;;;;4.24;72.31;94822.63;5006285;28;20112;-82
2021/12/03 19:05:11;;;;;;;2.70;2.17;;;;;;;4.27;71.88;94825.78;5003883;28;20048;-82
2021/12/03 19:07:50;;;;;;;4.53;2.97;;;;;;;4.38;71.67;94822.06;5004304;28;20535;-82
2021/12/03 19:10:20;;;;;;;3.83;2.70;;;;;;;4.35;71.43;94821.53;5001066;28;20087;-81